createdAt,value
2017-10-26T00:00:45.750Z,17.73
2017-10-26T00:03:13.256Z,18.07
2017-10-26T00:05:40.941Z,15.97
2017-10-26T00:08:09.212Z,17.50
2017-10-26T00:10:36.723Z,17.37
2017-10-26T00:13:04.228Z,18.87
2017-10-26T00:15:31.782Z,21.70
2017-10-26T00:17:59.298Z,19.60
2017-10-26T00:20:26.809Z,19.60
2017-10-26T00:22:54.583Z,20.67
2017-10-26T00:25:22.087Z,19.50
2017-10-26T00:27:49.599Z,19.20
2017-10-26T00:30:17.579Z,19.37
2017-10-26T00:32:45.158Z,20.13
2017-10-26T00:35:12.660Z,22.30
2017-10-26T00:37:40.224Z,19.33
2017-10-26T00:40:07.730Z,20.73
2017-10-26T00:42:35.236Z,18.27
2017-10-26T00:45:03.048Z,21.77
2017-10-26T00:47:30.556Z,20.27
2017-10-26T00:49:58.075Z,20.70
2017-10-26T00:52:25.668Z,19.60
2017-10-26T00:54:53.827Z,21.50
2017-10-26T00:57:21.355Z,20.60
2017-10-26T00:59:48.944Z,20.70
2017-10-26T01:02:16.721Z,21.23
2017-10-26T01:04:44.236Z,20.23
2017-10-26T01:07:11.783Z,21.33
2017-10-26T01:09:39.305Z,19.40
2017-10-26T01:12:06.818Z,19.97
2017-10-26T01:14:34.503Z,22.07
2017-10-26T01:17:02.023Z,19.60
2017-10-26T01:19:29.748Z,22.57
2017-10-26T01:21:57.313Z,23.63
2017-10-26T01:24:24.880Z,25.50
2017-10-26T01:26:52.391Z,25.47
2017-10-26T01:29:20.267Z,24.50
2017-10-26T01:31:47.840Z,26.70
2017-10-26T01:34:15.365Z,24.40
2017-10-26T01:36:42.943Z,25.70
2017-10-26T01:39:11.220Z,23.20
2017-10-26T01:41:39.490Z,24.90
2017-10-26T01:44:07.283Z,24.60
2017-10-26T01:46:34.800Z,25.83
2017-10-26T01:49:02.308Z,25.43
2017-10-26T01:51:29.981Z,25.97
2017-10-26T01:53:57.495Z,26.50
2017-10-26T01:56:25.024Z,24.70
2017-10-26T01:58:52.931Z,25.13
2017-10-26T02:01:21.214Z,25.30
2017-10-26T02:03:49.543Z,27.50
2017-10-26T02:06:17.081Z,27.50
2017-10-26T02:08:44.808Z,30.97
2017-10-26T02:11:13.223Z,29.73
2017-10-26T02:13:40.957Z,29.37
2017-10-26T02:16:09.273Z,28.40
2017-10-26T02:18:36.778Z,29.70
2017-10-26T02:21:04.464Z,28.70
2017-10-26T02:23:31.999Z,32.97
2017-10-26T02:25:59.528Z,30.93
2017-10-26T02:42:11.265Z,27.40
2017-10-26T02:44:38.807Z,29.37
2017-10-26T02:47:06.376Z,29.17
2017-10-26T02:49:34.406Z,29.57
2017-10-26T02:52:01.911Z,27.40
2017-10-26T02:54:30.207Z,28.67
2017-10-26T02:56:57.748Z,27.23
2017-10-26T02:59:25.299Z,29.20
2017-10-26T03:01:53.751Z,27.70
2017-10-26T03:04:21.315Z,25.67
2017-10-26T03:06:48.823Z,24.47
2017-10-26T03:09:16.347Z,24.97
2017-10-26T03:11:44.008Z,26.30
2017-10-26T03:14:11.527Z,26.07
2017-10-26T03:16:39.081Z,25.83
2017-10-26T03:19:07.091Z,26.97
2017-10-26T03:21:34.671Z,23.80
2017-10-26T03:24:03.201Z,24.73
2017-10-26T03:26:30.822Z,26.47
2017-10-26T03:28:59.328Z,26.60
2017-10-26T03:31:26.974Z,27.70
2017-10-26T03:33:54.555Z,28.93
2017-10-26T03:36:22.055Z,28.53
2017-10-26T03:38:49.563Z,28.57
2017-10-26T03:41:17.375Z,29.43
2017-10-26T03:43:44.903Z,30.10
2017-10-26T03:46:12.428Z,34.23
2017-10-26T03:48:40.007Z,35.77
2017-10-26T03:51:07.511Z,30.87
2017-10-26T03:53:35.018Z,37.13
2017-10-26T03:56:02.918Z,33.20
2017-10-26T03:58:30.422Z,37.50
2017-10-26T04:00:58.732Z,37.17
2017-10-26T04:03:26.307Z,35.60
2017-10-26T04:05:53.833Z,34.77
2017-10-26T04:08:21.359Z,36.67
2017-10-26T04:10:49.187Z,37.17
2017-10-26T04:13:16.696Z,33.70
2017-10-26T04:15:44.234Z,41.07
2017-10-26T04:18:11.830Z,38.73
2017-10-26T04:20:39.781Z,36.70
2017-10-26T04:23:08.063Z,39.90
2017-10-26T04:25:36.640Z,47.63
2017-10-26T04:28:04.179Z,45.43
2017-10-26T04:30:31.716Z,49.03
2017-10-26T04:32:59.615Z,41.63
2017-10-26T04:35:27.143Z,44.07
2017-10-26T04:37:54.650Z,42.50
2017-10-26T04:40:22.979Z,40.77
2017-10-26T04:42:50.503Z,41.70
2017-10-26T04:45:18.021Z,36.23
2017-10-26T04:47:45.685Z,29.70
2017-10-26T04:50:13.256Z,35.53
2017-10-26T04:52:40.761Z,31.83
2017-10-26T04:55:08.697Z,29.97
2017-10-26T04:57:36.979Z,30.00
2017-10-26T05:00:05.256Z,28.73
2017-10-26T05:02:33.559Z,30.40
2017-10-26T05:05:01.067Z,27.93
2017-10-26T05:07:28.574Z,29.17
2017-10-26T05:09:56.151Z,31.30
2017-10-26T05:12:23.669Z,30.00
2017-10-26T05:14:51.227Z,28.80
2017-10-26T05:17:19.555Z,26.10
2017-10-26T05:19:47.064Z,25.33
2017-10-26T05:22:15.119Z,25.10
2017-10-26T05:24:42.746Z,27.90
2017-10-26T05:27:10.268Z,28.13
2017-10-26T05:29:37.785Z,26.67
2017-10-26T05:32:05.584Z,27.73
2017-10-26T05:34:33.132Z,26.77
2017-10-26T05:37:00.646Z,24.27
2017-10-26T05:39:28.756Z,24.83
2017-10-26T05:41:56.531Z,22.47
2017-10-26T05:44:24.939Z,25.37
2017-10-26T05:46:52.516Z,26.27
2017-10-26T05:49:20.095Z,27.73
2017-10-26T05:51:47.607Z,23.50
2017-10-26T05:54:15.168Z,25.07
2017-10-26T05:56:42.675Z,24.00
2017-10-26T05:59:10.191Z,25.27
2017-10-26T06:01:37.743Z,25.83
2017-10-26T06:04:05.252Z,27.30
2017-10-26T06:06:32.843Z,28.93
2017-10-26T06:09:00.430Z,26.30
2017-10-26T06:11:27.959Z,26.50
2017-10-26T06:13:55.839Z,24.90
2017-10-26T06:16:23.710Z,28.40
2017-10-26T06:18:51.303Z,24.83
2017-10-26T06:21:19.255Z,26.53
2017-10-26T06:23:46.803Z,26.00
2017-10-26T06:26:15.123Z,26.87
2017-10-26T06:28:42.726Z,25.23
2017-10-26T06:31:10.999Z,27.37
2017-10-26T06:33:39.278Z,26.50
2017-10-26T06:36:07.602Z,24.77
2017-10-26T06:38:35.108Z,26.50
2017-10-26T06:41:02.619Z,27.43
2017-10-26T06:43:30.527Z,27.17
2017-10-26T06:45:58.604Z,28.03
2017-10-26T06:48:26.941Z,28.40
2017-10-26T06:50:54.742Z,30.07
2017-10-26T06:53:22.631Z,26.23
2017-10-26T06:55:51.039Z,26.27
2017-10-26T06:58:18.548Z,25.50
2017-10-26T07:00:46.131Z,28.57
2017-10-26T07:03:13.647Z,29.33
2017-10-26T07:05:41.159Z,23.20
2017-10-26T07:08:09.983Z,22.50
2017-10-26T07:10:37.487Z,23.50
2017-10-26T07:13:04.987Z,26.50
2017-10-26T07:15:32.572Z,25.50
2017-10-26T07:18:00.079Z,24.20
2017-10-26T07:20:28.349Z,23.87
2017-10-26T07:22:57.222Z,18.10
2017-10-26T07:25:24.719Z,17.90
2017-10-26T07:27:52.243Z,17.20
2017-10-26T07:30:20.067Z,14.70
2017-10-26T07:32:47.574Z,17.13
2017-10-26T07:35:15.120Z,16.40
2017-10-26T07:37:43.053Z,14.83
2017-10-26T07:40:10.552Z,17.27
2017-10-26T07:42:38.052Z,15.87
2017-10-26T07:45:05.851Z,15.07
2017-10-26T07:47:33.359Z,15.23
2017-10-26T07:50:00.908Z,14.03
2017-10-26T07:52:28.520Z,15.23
2017-10-26T07:54:56.026Z,13.50
2017-10-26T07:57:24.302Z,13.53
2017-10-26T07:59:52.645Z,14.57
2017-10-26T08:02:20.151Z,13.13
2017-10-26T08:04:47.668Z,14.37
2017-10-26T08:07:15.660Z,13.73
2017-10-26T08:09:43.285Z,13.30
2017-10-26T08:12:10.788Z,15.37
2017-10-26T08:14:38.794Z,14.53
2017-10-26T08:17:06.437Z,15.50
2017-10-26T08:19:33.999Z,14.93
2017-10-26T08:22:01.913Z,15.90
2017-10-26T08:24:29.452Z,16.47
2017-10-26T08:26:57.084Z,14.00
2017-10-26T08:29:24.661Z,13.33
2017-10-26T08:31:52.174Z,12.77
2017-10-26T08:34:19.676Z,13.07
2017-10-26T08:36:47.329Z,14.43
2017-10-26T08:39:14.837Z,14.30
2017-10-26T08:41:42.334Z,15.80
2017-10-26T08:44:10.199Z,13.80
2017-10-26T08:46:37.731Z,13.07
2017-10-26T08:49:05.238Z,13.30
2017-10-26T08:51:32.803Z,14.63
2017-10-26T08:54:00.307Z,15.90
2017-10-26T08:56:27.867Z,17.20
2017-10-26T08:58:55.491Z,13.77
2017-10-26T09:01:22.995Z,15.77
2017-10-26T09:03:50.503Z,14.30
2017-10-26T09:06:18.095Z,15.17
2017-10-26T09:08:45.687Z,14.70
2017-10-26T09:11:13.960Z,13.97
2017-10-26T09:13:42.292Z,14.17
2017-10-26T09:16:09.799Z,15.00
2017-10-26T09:18:37.311Z,12.23
2017-10-26T09:21:05.212Z,13.37
2017-10-26T09:23:32.710Z,12.40
2017-10-26T09:26:00.284Z,11.87
2017-10-26T09:28:28.051Z,12.83
2017-10-26T09:30:55.555Z,13.57
2017-10-26T09:33:28.671Z,13.00
2017-10-26T09:35:56.188Z,13.57
2017-10-26T09:38:23.703Z,13.30
2017-10-26T09:40:51.394Z,13.47
2017-10-26T09:43:19.312Z,13.67
2017-10-26T09:45:47.819Z,14.30
2017-10-26T09:48:15.975Z,13.60
2017-10-26T09:50:43.908Z,13.07
2017-10-26T09:53:11.438Z,14.00
2017-10-26T09:55:38.974Z,13.23
2017-10-26T09:58:06.843Z,13.03
2017-10-26T10:00:34.406Z,14.30
2017-10-26T10:03:02.123Z,12.13
2017-10-26T10:05:29.713Z,13.60
2017-10-26T10:07:57.984Z,13.10
2017-10-26T10:10:26.263Z,12.80
2017-10-26T10:12:54.582Z,12.47
2017-10-26T10:15:22.091Z,13.53
2017-10-26T10:17:49.680Z,13.20
2017-10-26T10:20:17.491Z,12.30
2017-10-26T10:22:45.052Z,12.93
2017-10-26T10:25:12.570Z,11.50
2017-10-26T10:27:40.457Z,10.70
2017-10-26T10:30:07.973Z,12.10
2017-10-26T10:32:35.635Z,12.70
2017-10-26T10:35:04.215Z,12.60
2017-10-26T10:37:31.735Z,12.60
2017-10-26T10:39:59.255Z,14.07
2017-10-26T10:42:27.803Z,14.63
2017-10-26T10:44:55.355Z,11.20
2017-10-26T10:47:22.905Z,12.73
2017-10-26T10:49:50.470Z,12.50
2017-10-26T10:52:17.971Z,12.27
2017-10-26T10:54:45.477Z,14.00
2017-10-26T10:57:13.047Z,12.10
2017-10-26T10:59:46.094Z,12.40
2017-10-26T11:02:13.962Z,12.60
2017-10-26T11:04:41.614Z,10.87
2017-10-26T11:07:09.114Z,10.23
2017-10-26T11:09:36.663Z,11.47
2017-10-26T11:12:04.187Z,12.90
2017-10-26T11:14:31.709Z,13.20
2017-10-26T11:16:59.698Z,12.87
2017-10-26T11:19:27.199Z,13.10
2017-10-26T11:21:54.753Z,12.83
2017-10-26T11:24:22.611Z,12.90
2017-10-26T11:26:50.127Z,13.70
2017-10-26T11:29:18.420Z,13.07
2017-10-26T11:31:46.035Z,12.93
2017-10-26T11:34:13.830Z,13.93
2017-10-26T11:36:41.391Z,11.60
2017-10-26T11:39:10.111Z,11.27
2017-10-26T11:41:37.615Z,12.57
2017-10-26T11:44:05.199Z,13.50
2017-10-26T11:46:34.043Z,12.00
2017-10-26T11:49:01.552Z,11.37
2017-10-26T11:51:29.858Z,12.13
2017-10-26T11:53:57.711Z,12.70
2017-10-26T11:56:25.373Z,10.00
2017-10-26T11:58:53.051Z,11.30
2017-10-26T12:01:20.611Z,9.97
2017-10-26T12:03:48.580Z,9.50
2017-10-26T12:06:16.639Z,11.50
2017-10-26T12:08:44.140Z,11.30
2017-10-26T12:11:11.696Z,10.27
2017-10-26T12:13:39.203Z,11.60
2017-10-26T12:16:07.483Z,10.97
2017-10-26T12:18:36.227Z,11.03
2017-10-26T12:21:03.855Z,11.10
2017-10-26T12:23:31.387Z,9.93
2017-10-26T12:25:59.264Z,9.70
2017-10-26T12:28:26.810Z,8.80
2017-10-26T12:30:55.083Z,9.73
2017-10-26T12:33:23.568Z,9.80
2017-10-26T12:35:51.894Z,9.27
2017-10-26T12:38:19.435Z,8.80
2017-10-26T12:40:47.339Z,11.60
2017-10-26T12:43:14.858Z,10.43
2017-10-26T12:45:42.359Z,10.00
2017-10-26T12:48:10.174Z,9.53
2017-10-26T12:50:37.731Z,9.13
2017-10-26T12:53:05.300Z,10.13
2017-10-26T12:55:32.855Z,9.90
2017-10-26T12:58:00.362Z,10.00
2017-10-26T13:00:27.869Z,11.07
2017-10-26T13:02:55.723Z,10.70
2017-10-26T13:05:23.236Z,10.73
2017-10-26T13:07:50.751Z,10.93
2017-10-26T13:10:18.333Z,10.60
2017-10-26T13:12:45.837Z,11.63
2017-10-26T13:15:14.103Z,9.60
2017-10-26T13:17:42.426Z,10.50
2017-10-26T13:20:10.002Z,10.37
2017-10-26T13:22:37.517Z,9.87
2017-10-26T13:25:05.183Z,9.67
2017-10-26T13:27:32.739Z,10.10
2017-10-26T13:30:00.247Z,8.50
2017-10-26T13:32:28.318Z,10.50
2017-10-26T13:34:56.670Z,8.47
2017-10-26T13:37:24.272Z,8.60
2017-10-26T13:39:51.903Z,9.10
2017-10-26T13:42:19.776Z,9.50
2017-10-26T13:44:47.283Z,8.80
2017-10-26T13:47:14.792Z,7.87
2017-10-26T13:49:42.594Z,7.60
2017-10-26T13:52:10.134Z,8.53
2017-10-26T13:54:37.639Z,8.93
2017-10-26T13:57:06.371Z,7.13
2017-10-26T13:59:34.647Z,8.50
2017-10-26T14:02:02.159Z,8.40
2017-10-26T14:04:30.499Z,7.40
2017-10-26T14:06:58.219Z,7.60
2017-10-26T14:09:26.580Z,8.40
2017-10-26T14:11:54.451Z,7.40
2017-10-26T14:14:22.131Z,7.97
2017-10-26T14:16:49.808Z,6.70
2017-10-26T14:19:17.653Z,7.47
2017-10-26T14:21:45.438Z,7.23
2017-10-26T14:24:13.184Z,8.90
2017-10-26T14:26:40.763Z,7.60
2017-10-26T14:29:08.572Z,8.30
2017-10-26T14:31:36.090Z,8.53
2017-10-26T14:34:03.635Z,7.83
2017-10-26T14:36:31.488Z,8.90
2017-10-26T14:38:59.112Z,9.87
2017-10-26T14:41:26.613Z,9.20
2017-10-26T14:43:54.534Z,9.83
2017-10-26T14:46:22.027Z,8.57
2017-10-26T14:48:49.527Z,8.47
2017-10-26T14:51:17.460Z,7.93
2017-10-26T14:53:45.052Z,10.00
2017-10-26T14:56:12.568Z,9.87
2017-10-26T14:58:40.407Z,8.83
2017-10-26T15:01:07.911Z,8.37
2017-10-26T15:03:35.434Z,9.27
2017-10-26T15:06:03.470Z,9.90
2017-10-26T15:08:31.324Z,10.63
2017-10-26T15:10:59.911Z,9.73
2017-10-26T15:13:27.439Z,10.50
2017-10-26T15:15:54.938Z,9.40
2017-10-26T15:18:22.512Z,9.20
2017-10-26T15:20:50.021Z,9.27
2017-10-26T15:23:17.524Z,9.17
2017-10-26T15:25:45.083Z,9.40
2017-10-26T15:28:12.590Z,10.37
2017-10-26T15:30:40.116Z,10.00
2017-10-26T15:33:07.786Z,10.30
2017-10-26T15:35:35.311Z,10.47
2017-10-26T15:38:02.829Z,10.40
2017-10-26T15:40:30.384Z,10.77
2017-10-26T15:42:57.883Z,11.47
2017-10-26T15:45:25.382Z,10.27
2017-10-26T15:47:52.935Z,11.87
2017-10-26T15:50:20.443Z,11.67
2017-10-26T15:52:48.713Z,9.90
2017-10-26T15:55:17.038Z,12.53
2017-10-26T15:57:44.607Z,11.23
2017-10-26T16:00:12.159Z,12.70
2017-10-26T16:02:40.124Z,10.97
2017-10-26T16:05:07.685Z,12.40
2017-10-26T16:07:35.775Z,11.50
2017-10-26T16:10:03.626Z,11.97
2017-10-26T16:12:31.139Z,12.07
2017-10-26T16:14:58.663Z,11.37
2017-10-26T16:17:26.479Z,12.27
2017-10-26T16:19:54.063Z,13.03
2017-10-26T16:22:21.944Z,13.27
2017-10-26T16:24:49.527Z,13.10
2017-10-26T16:27:17.099Z,11.70
2017-10-26T16:29:44.672Z,13.67
2017-10-26T16:32:12.968Z,13.87
2017-10-26T16:34:40.604Z,12.37
2017-10-26T16:37:09.313Z,11.47
2017-10-26T16:39:37.543Z,12.20
2017-10-26T16:42:05.190Z,16.03
2017-10-26T16:44:33.790Z,14.67
2017-10-26T16:47:01.351Z,15.10
2017-10-26T16:49:29.172Z,17.20
2017-10-26T16:51:56.761Z,17.53
2017-10-26T16:54:24.323Z,16.90
2017-10-26T16:56:51.897Z,17.10
2017-10-26T16:59:19.443Z,16.40
2017-10-26T17:01:46.955Z,14.23
2017-10-26T17:04:14.767Z,16.67
2017-10-26T17:06:42.417Z,15.10
2017-10-26T17:09:09.987Z,15.87
2017-10-26T17:11:37.543Z,16.50
2017-10-26T17:14:05.071Z,14.60
2017-10-26T17:16:33.015Z,13.87
2017-10-26T17:19:01.111Z,20.47
2017-10-26T17:21:28.664Z,20.53
2017-10-26T17:23:56.564Z,17.17
2017-10-26T17:26:24.094Z,18.43
2017-10-26T17:28:51.600Z,24.43
2017-10-26T17:31:19.199Z,23.30
2017-10-26T17:33:46.750Z,33.73
2017-10-26T17:36:15.036Z,23.73
2017-10-26T17:38:43.719Z,24.90
2017-10-26T17:41:12.020Z,26.03
2017-10-26T17:43:39.895Z,23.17
2017-10-26T17:46:07.548Z,23.77
2017-10-26T17:48:35.499Z,20.47
2017-10-26T17:51:03.046Z,24.40
2017-10-26T17:53:31.750Z,26.03
2017-10-26T17:55:59.315Z,24.97
2017-10-26T17:58:26.827Z,22.30
2017-10-26T18:00:55.047Z,23.47
2017-10-26T18:03:22.571Z,23.60
2017-10-26T18:05:50.075Z,20.83
2017-10-26T18:08:17.626Z,21.70
2017-10-26T18:10:45.176Z,22.93
2017-10-26T18:13:13.467Z,24.07
2017-10-26T18:15:41.031Z,20.70
2017-10-26T18:18:08.883Z,24.57
2017-10-26T18:20:36.470Z,27.80
2017-10-26T18:23:03.970Z,23.93
2017-10-26T18:25:31.620Z,20.67
2017-10-26T18:27:59.123Z,22.93
2017-10-26T18:30:26.672Z,24.80
2017-10-26T18:32:55.388Z,23.70
2017-10-26T18:35:22.911Z,22.70
2017-10-26T18:37:50.461Z,21.63
2017-10-26T18:40:18.355Z,21.40
2017-10-26T18:42:45.868Z,19.27
2017-10-26T18:45:13.371Z,22.53
2017-10-26T18:47:40.951Z,20.30
2017-10-26T18:50:08.491Z,22.03
2017-10-26T18:52:36.089Z,23.30
2017-10-26T18:55:03.897Z,23.30
2017-10-26T18:57:31.790Z,21.87
2017-10-26T18:59:59.348Z,23.43
2017-10-26T19:02:26.955Z,22.17
2017-10-26T19:04:54.531Z,23.37
2017-10-26T19:07:22.038Z,23.13
2017-10-26T19:09:49.615Z,25.13
2017-10-26T19:12:17.131Z,25.47
2017-10-26T19:14:45.399Z,26.10
2017-10-26T19:17:13.991Z,25.80
2017-10-26T19:19:41.535Z,26.17
2017-10-26T19:22:09.040Z,26.17
2017-10-26T19:24:36.876Z,25.33
2017-10-26T19:27:05.156Z,30.00
2017-10-26T19:29:33.431Z,30.07
2017-10-26T19:32:01.829Z,25.50
2017-10-26T19:34:29.367Z,27.13
2017-10-26T19:36:57.756Z,27.03
2017-10-26T19:39:25.315Z,25.00
2017-10-26T19:41:52.979Z,25.53
2017-10-26T19:44:24.118Z,28.83
2017-10-26T19:46:52.430Z,28.70
2017-10-26T19:49:20.579Z,26.20
2017-10-26T19:51:48.271Z,32.93
2017-10-26T19:54:16.224Z,30.30
2017-10-26T19:56:43.734Z,35.23
2017-10-26T19:59:11.241Z,27.47
2017-10-26T20:01:39.123Z,30.83
2017-10-26T20:04:06.626Z,32.30
2017-10-26T20:06:34.127Z,29.70
2017-10-26T20:09:02.423Z,32.40
2017-10-26T20:11:29.927Z,32.73
2017-10-26T20:13:57.436Z,32.30
2017-10-26T20:16:25.278Z,32.07
2017-10-26T20:18:52.799Z,29.43
2017-10-26T20:21:20.304Z,35.70
2017-10-26T20:23:47.889Z,34.77
2017-10-26T20:26:15.695Z,35.10
2017-10-26T20:28:43.383Z,31.17
2017-10-26T20:31:11.189Z,33.00
2017-10-26T20:33:38.795Z,32.10
2017-10-26T20:36:07.110Z,37.20
2017-10-26T20:38:34.974Z,35.60
2017-10-26T20:41:02.562Z,35.60
2017-10-26T20:43:30.099Z,34.23
2017-10-26T20:45:57.912Z,35.30
2017-10-26T20:48:26.318Z,31.37
2017-10-26T20:50:59.771Z,32.47
2017-10-26T20:53:33.193Z,29.97
2017-10-26T20:56:07.839Z,30.00
2017-10-26T20:58:41.066Z,31.10
2017-10-26T21:14:40.420Z,30.43
2017-10-26T21:17:08.686Z,31.97
2017-10-26T21:19:36.256Z,33.47
2017-10-26T21:22:03.988Z,29.23
2017-10-26T21:24:31.979Z,28.73
2017-10-26T21:27:00.515Z,30.70
2017-10-26T21:29:28.091Z,30.70
2017-10-26T21:31:56.100Z,30.23
2017-10-26T21:34:23.916Z,27.47
2017-10-26T21:36:51.513Z,28.37
2017-10-26T21:39:19.800Z,35.63
2017-10-26T21:41:47.742Z,34.40
2017-10-26T21:44:15.242Z,35.57
2017-10-26T21:46:42.773Z,38.00
2017-10-26T21:49:11.487Z,36.33
2017-10-26T21:51:39.009Z,32.30
2017-10-26T21:54:06.555Z,31.47
2017-10-26T21:56:34.123Z,33.30
2017-10-26T21:59:01.637Z,32.37
2017-10-26T22:01:29.248Z,34.80
2017-10-26T22:03:56.811Z,33.47
2017-10-26T22:06:24.330Z,31.37
2017-10-26T22:08:52.000Z,32.50
2017-10-26T22:11:19.566Z,32.50
2017-10-26T22:13:47.070Z,32.70
2017-10-26T22:16:15.473Z,30.23
2017-10-26T22:18:43.135Z,32.60
2017-10-26T22:21:10.707Z,38.37
2017-10-26T22:23:38.236Z,38.80
2017-10-26T22:26:05.815Z,42.00
2017-10-26T22:28:33.323Z,37.30
2017-10-26T22:31:00.884Z,34.60
2017-10-26T22:33:28.442Z,36.33
2017-10-26T22:35:56.027Z,32.90
2017-10-26T22:38:24.420Z,30.87
2017-10-26T22:40:52.767Z,31.00
2017-10-26T22:43:20.292Z,32.47
2017-10-26T22:45:47.932Z,36.87
2017-10-26T22:48:15.819Z,36.90
2017-10-26T22:50:43.339Z,40.80
2017-10-26T22:53:11.079Z,36.13
2017-10-26T22:55:38.650Z,34.70
2017-10-26T22:58:06.231Z,37.87
2017-10-26T23:00:33.735Z,35.47
2017-10-26T23:03:01.380Z,38.47
2017-10-26T23:05:28.892Z,37.50
2017-10-26T23:07:57.138Z,34.60
2017-10-26T23:10:24.707Z,33.50
2017-10-26T23:12:52.433Z,31.50
2017-10-26T23:15:19.939Z,34.33
2017-10-26T23:17:47.543Z,34.40
2017-10-26T23:20:15.047Z,31.70
2017-10-26T23:22:42.562Z,31.17
2017-10-26T23:25:10.171Z,33.20
2017-10-26T23:27:37.678Z,33.77
2017-10-26T23:30:05.191Z,39.90
2017-10-26T23:32:32.787Z,41.10
2017-10-26T23:35:00.801Z,38.40
2017-10-26T23:37:28.319Z,42.40
2017-10-26T23:39:56.083Z,31.00
2017-10-26T23:42:23.591Z,39.00
2017-10-26T23:44:51.125Z,39.13
2017-10-26T23:47:18.711Z,39.23
2017-10-26T23:49:46.224Z,41.40
2017-10-26T23:52:13.779Z,33.97
2017-10-26T23:54:41.361Z,37.40
2017-10-26T23:57:08.867Z,34.17
2017-10-26T23:59:37.154Z,31.77
